createdAt,value
2017-11-11T00:00:24.617Z,64.50
2017-11-11T00:02:52.953Z,64.80
2017-11-11T00:05:22.011Z,64.80
2017-11-11T00:07:50.321Z,64.80
2017-11-11T00:10:18.641Z,65.40
2017-11-11T00:12:47.004Z,65.80
2017-11-11T00:15:16.088Z,66.90
2017-11-11T00:17:45.161Z,67.00
2017-11-11T00:20:13.456Z,67.00
2017-11-11T00:22:41.745Z,67.10
2017-11-11T00:25:10.255Z,67.20
2017-11-11T00:27:39.407Z,66.80
2017-11-11T00:30:07.756Z,66.80
2017-11-11T00:32:36.047Z,67.00
2017-11-11T00:35:04.351Z,66.90
2017-11-11T00:37:32.652Z,67.70
2017-11-11T00:40:00.960Z,69.00
2017-11-11T00:42:30.188Z,68.40
2017-11-11T00:44:58.477Z,68.40
2017-11-11T00:47:26.780Z,68.60
2017-11-11T00:49:55.073Z,68.70
2017-11-11T00:52:24.137Z,68.40
2017-11-11T00:54:52.509Z,68.20
2017-11-11T00:57:20.793Z,67.50
2017-11-11T00:59:49.080Z,67.50
2017-11-11T01:02:17.373Z,68.70
2017-11-11T01:04:45.676Z,70.50
2017-11-11T01:07:14.019Z,73.30
2017-11-11T01:09:42.306Z,74.70
2017-11-11T01:12:10.611Z,75.40
2017-11-11T01:14:39.046Z,76.00
2017-11-11T01:17:08.121Z,77.40
2017-11-11T01:19:36.406Z,77.40
2017-11-11T01:22:04.689Z,76.90
2017-11-11T01:24:33.831Z,76.20
2017-11-11T01:27:02.179Z,76.20
2017-11-11T01:29:31.236Z,75.70
2017-11-11T01:31:59.623Z,75.60
2017-11-11T01:34:27.908Z,75.80
2017-11-11T01:36:56.204Z,76.10
2017-11-11T01:39:24.506Z,75.90
2017-11-11T01:41:53.572Z,74.80
2017-11-11T01:44:21.879Z,74.80
2017-11-11T01:46:50.937Z,74.70
2017-11-11T01:49:19.221Z,74.20
2017-11-11T01:51:47.575Z,73.80
2017-11-11T01:54:15.871Z,74.20
2017-11-11T01:56:44.239Z,74.50
2017-11-11T01:59:12.552Z,74.90
2017-11-11T02:01:40.853Z,74.80
2017-11-11T02:04:09.155Z,75.00
2017-11-11T02:06:38.224Z,75.50
2017-11-11T02:09:06.512Z,75.50
2017-11-11T02:11:34.801Z,75.30
2017-11-11T02:14:03.109Z,75.50
2017-11-11T02:16:31.394Z,76.30
2017-11-11T02:18:59.685Z,75.60
2017-11-11T02:21:27.967Z,75.50
2017-11-11T02:23:56.352Z,75.20
2017-11-11T02:26:24.650Z,75.30
2017-11-11T02:28:52.959Z,75.10
2017-11-11T02:31:21.253Z,75.00
2017-11-11T02:33:49.554Z,75.10
2017-11-11T02:36:18.611Z,74.90
2017-11-11T02:38:47.665Z,74.90
2017-11-11T02:41:15.972Z,74.90
2017-11-11T02:43:44.265Z,74.80
2017-11-11T02:46:12.554Z,74.60
2017-11-11T02:48:40.849Z,74.10
2017-11-11T02:51:10.681Z,74.20
2017-11-11T02:53:39.733Z,74.10
2017-11-11T02:56:08.022Z,74.00
2017-11-11T02:58:36.312Z,73.90
2017-11-11T03:01:04.794Z,73.80
2017-11-11T03:03:33.098Z,74.50
2017-11-11T03:06:01.406Z,73.00
2017-11-11T03:08:29.712Z,73.40
2017-11-11T03:10:58.102Z,74.40
2017-11-11T03:13:26.383Z,73.70
2017-11-11T03:15:54.695Z,74.00
2017-11-11T03:18:23.058Z,74.60
2017-11-11T03:20:51.395Z,75.50
2017-11-11T03:23:20.474Z,76.20
2017-11-11T03:25:49.623Z,76.70
2017-11-11T03:28:17.928Z,76.40
2017-11-11T03:30:46.229Z,76.90
2017-11-11T03:33:16.096Z,75.90
2017-11-11T03:35:44.420Z,75.80
2017-11-11T03:38:12.720Z,75.80
2017-11-11T03:40:41.171Z,75.80
2017-11-11T03:43:09.456Z,76.50
2017-11-11T03:45:37.744Z,76.10
2017-11-11T03:48:06.038Z,76.00
2017-11-11T03:50:34.366Z,76.00
2017-11-11T03:53:02.674Z,75.90
2017-11-11T03:55:30.973Z,76.30
2017-11-11T03:57:59.340Z,76.10
2017-11-11T04:00:27.638Z,76.50
2017-11-11T04:02:55.940Z,76.40
2017-11-11T04:05:24.230Z,76.10
2017-11-11T04:07:53.292Z,76.20
2017-11-11T04:10:21.589Z,76.20
2017-11-11T04:12:50.640Z,75.70
2017-11-11T04:15:18.928Z,75.70
2017-11-11T04:17:47.220Z,76.00
2017-11-11T04:20:15.581Z,75.90
2017-11-11T04:22:43.876Z,75.90
2017-11-11T04:25:12.202Z,75.70
2017-11-11T04:27:40.514Z,75.80
2017-11-11T04:30:08.821Z,76.40
2017-11-11T04:32:37.230Z,75.80
2017-11-11T04:35:05.541Z,75.40
2017-11-11T04:37:34.624Z,75.30
2017-11-11T04:40:03.266Z,75.30
2017-11-11T04:42:31.568Z,75.10
2017-11-11T04:44:59.862Z,75.10
2017-11-11T04:47:28.157Z,75.00
2017-11-11T04:49:56.463Z,74.60
2017-11-11T04:52:26.265Z,74.60
2017-11-11T04:54:54.560Z,74.70
2017-11-11T04:57:23.686Z,74.60
2017-11-11T04:59:51.977Z,74.60
2017-11-11T05:02:20.280Z,74.40
2017-11-11T05:04:48.579Z,74.60
2017-11-11T05:07:16.889Z,74.20
2017-11-11T05:09:45.199Z,74.10
2017-11-11T05:12:13.500Z,74.10
2017-11-11T05:14:41.812Z,73.90
2017-11-11T05:17:10.240Z,73.80
2017-11-11T05:19:38.576Z,73.20
2017-11-11T05:22:06.881Z,73.20
2017-11-11T05:24:36.070Z,73.90
2017-11-11T05:27:05.138Z,73.80
2017-11-11T05:29:33.465Z,73.00
2017-11-11T05:32:01.790Z,73.20
2017-11-11T05:34:30.085Z,73.50
2017-11-11T05:36:58.392Z,73.80
2017-11-11T05:39:26.737Z,73.80
2017-11-11T05:41:55.127Z,74.40
2017-11-11T05:44:23.438Z,74.00
2017-11-11T05:46:51.754Z,74.10
2017-11-11T05:49:20.055Z,74.20
2017-11-11T05:51:48.349Z,74.10
2017-11-11T05:54:16.685Z,74.00
2017-11-11T05:56:45.829Z,74.20
2017-11-11T05:59:14.127Z,74.20
2017-11-11T06:01:42.445Z,74.20
2017-11-11T06:04:11.524Z,74.20
2017-11-11T06:06:40.592Z,74.70
2017-11-11T06:09:08.918Z,74.30
2017-11-11T06:11:38.056Z,74.10
2017-11-11T06:14:06.376Z,74.10
2017-11-11T06:16:35.460Z,73.80
2017-11-11T06:19:03.760Z,73.90
2017-11-11T06:21:32.098Z,73.60
2017-11-11T06:24:00.421Z,74.50
2017-11-11T06:26:28.754Z,74.10
2017-11-11T06:28:57.049Z,73.00
2017-11-11T06:31:25.357Z,72.90
2017-11-11T06:33:53.669Z,72.90
2017-11-11T06:36:22.786Z,72.90
2017-11-11T06:38:51.088Z,72.90
2017-11-11T06:41:19.408Z,73.40
2017-11-11T06:43:48.497Z,73.80
2017-11-11T06:46:16.804Z,73.20
2017-11-11T06:48:45.099Z,72.70
2017-11-11T06:51:14.186Z,74.10
2017-11-11T06:53:42.534Z,74.00
2017-11-11T06:56:10.845Z,74.40
2017-11-11T06:58:39.152Z,74.00
2017-11-11T07:01:08.293Z,73.90
2017-11-11T07:03:36.589Z,73.90
2017-11-11T07:06:04.890Z,73.80
2017-11-11T07:08:33.187Z,74.00
2017-11-11T07:11:02.338Z,74.00
2017-11-11T07:13:30.631Z,74.00
2017-11-11T07:15:59.007Z,74.00
2017-11-11T07:18:27.331Z,73.80
2017-11-11T07:20:56.418Z,73.80
2017-11-11T07:23:25.481Z,73.90
2017-11-11T07:25:53.794Z,73.90
2017-11-11T07:28:22.134Z,73.80
2017-11-11T07:30:50.431Z,73.60
2017-11-11T07:33:18.745Z,73.30
2017-11-11T07:35:47.845Z,73.40
2017-11-11T07:38:16.921Z,73.40
2017-11-11T07:40:45.219Z,73.40
2017-11-11T07:43:13.528Z,72.70
2017-11-11T07:45:42.596Z,72.50
2017-11-11T07:48:10.897Z,72.50
2017-11-11T07:50:39.957Z,72.40
2017-11-11T07:53:08.269Z,72.40
2017-11-11T07:55:36.571Z,73.00
2017-11-11T07:58:05.647Z,73.90
2017-11-11T08:00:33.939Z,73.80
2017-11-11T08:03:03.034Z,73.20
2017-11-11T08:05:32.093Z,73.50
2017-11-11T08:08:00.421Z,73.40
2017-11-11T08:10:29.499Z,72.90
2017-11-11T08:12:57.962Z,72.90
2017-11-11T08:15:26.247Z,72.50
2017-11-11T08:17:54.890Z,71.80
2017-11-11T08:20:23.198Z,70.90
2017-11-11T08:22:51.572Z,69.90
2017-11-11T08:25:19.863Z,69.80
2017-11-11T08:27:48.170Z,69.60
2017-11-11T08:30:16.490Z,69.20
2017-11-11T08:32:44.801Z,69.50
2017-11-11T08:35:13.174Z,69.00
2017-11-11T08:37:41.505Z,69.30
2017-11-11T08:40:09.806Z,70.40
2017-11-11T08:42:38.917Z,72.00
2017-11-11T08:45:08.029Z,72.50
2017-11-11T08:47:36.407Z,72.40
2017-11-11T08:50:05.311Z,73.40
2017-11-11T08:52:33.619Z,74.40
2017-11-11T08:55:01.953Z,75.20
2017-11-11T08:57:31.043Z,76.00
2017-11-11T09:00:00.111Z,77.50
2017-11-11T09:02:28.422Z,76.70
2017-11-11T09:04:57.587Z,77.50
2017-11-11T09:07:25.974Z,77.50
2017-11-11T09:09:55.056Z,78.80
2017-11-11T09:12:23.423Z,78.40
2017-11-11T09:14:51.731Z,79.00
2017-11-11T09:17:20.044Z,79.10
2017-11-11T09:19:48.341Z,79.10
2017-11-11T09:22:17.423Z,79.10
2017-11-11T09:24:45.731Z,79.10
2017-11-11T09:27:14.805Z,79.20
2017-11-11T09:29:43.104Z,79.20
2017-11-11T09:32:12.219Z,79.10
2017-11-11T09:34:40.512Z,79.10
2017-11-11T09:37:08.811Z,79.00
2017-11-11T09:39:37.135Z,79.00
2017-11-11T09:42:05.429Z,78.80
2017-11-11T09:44:34.524Z,77.90
2017-11-11T09:47:03.666Z,77.40
2017-11-11T09:49:31.980Z,77.40
2017-11-11T09:52:00.276Z,76.80
2017-11-11T09:54:28.576Z,76.50
2017-11-11T09:56:58.385Z,74.00
2017-11-11T09:59:27.493Z,73.30
2017-11-11T10:01:56.580Z,72.60
2017-11-11T10:04:25.743Z,72.60
2017-11-11T10:06:54.072Z,72.60
2017-11-11T10:09:23.161Z,70.90
2017-11-11T10:11:53.058Z,71.30
2017-11-11T10:14:21.370Z,70.30
2017-11-11T10:16:50.424Z,69.90
2017-11-11T10:19:18.727Z,69.80
2017-11-11T10:21:47.048Z,69.60
2017-11-11T10:24:15.380Z,69.30
2017-11-11T10:26:43.680Z,68.80
2017-11-11T10:29:12.897Z,68.80
2017-11-11T10:31:41.973Z,68.80
2017-11-11T10:34:10.264Z,68.80
2017-11-11T10:36:38.582Z,68.70
2017-11-11T10:39:07.444Z,68.70
2017-11-11T10:41:36.516Z,68.40
2017-11-11T10:44:04.821Z,68.40
2017-11-11T10:46:33.896Z,68.00
2017-11-11T10:49:02.266Z,67.90
2017-11-11T10:51:30.559Z,67.50
2017-11-11T10:53:58.882Z,67.70
2017-11-11T10:56:27.190Z,67.70
2017-11-11T10:58:55.552Z,68.10
2017-11-11T11:01:23.846Z,68.30
2017-11-11T11:03:52.236Z,68.10
2017-11-11T11:06:20.589Z,67.80
2017-11-11T11:08:49.673Z,67.30
2017-11-11T11:11:18.756Z,67.20
2017-11-11T11:13:47.066Z,67.20
2017-11-11T11:16:16.190Z,66.10
2017-11-11T11:18:44.480Z,66.10
2017-11-11T11:21:12.773Z,65.70
2017-11-11T11:23:40.360Z,65.40
2017-11-11T11:26:08.662Z,64.70
2017-11-11T11:28:36.963Z,64.20
2017-11-11T11:31:05.270Z,63.90
2017-11-11T11:33:33.564Z,63.70
2017-11-11T11:36:01.885Z,63.90
2017-11-11T11:38:30.208Z,64.00
2017-11-11T11:40:58.518Z,62.60
2017-11-11T11:43:26.817Z,62.10
2017-11-11T11:45:55.114Z,62.20
2017-11-11T11:48:23.418Z,61.60
2017-11-11T11:50:51.734Z,61.90
2017-11-11T11:53:20.051Z,62.10
2017-11-11T11:55:48.411Z,61.40
2017-11-11T11:58:16.853Z,60.40
2017-11-11T12:00:45.169Z,60.20
2017-11-11T12:03:13.506Z,60.30
2017-11-11T12:05:42.595Z,60.10
2017-11-11T12:08:11.715Z,59.70
2017-11-11T12:10:40.014Z,59.70
2017-11-11T12:13:08.310Z,59.70
2017-11-11T12:15:37.692Z,59.70
2017-11-11T12:18:06.026Z,59.50
2017-11-11T12:20:34.562Z,59.50
2017-11-11T12:23:02.908Z,59.80
2017-11-11T12:25:31.204Z,59.90
2017-11-11T12:28:00.353Z,60.30
2017-11-11T12:30:28.671Z,60.30
2017-11-11T12:32:56.977Z,60.30
2017-11-11T12:35:25.294Z,60.10
2017-11-11T12:37:53.756Z,60.20
2017-11-11T12:40:22.063Z,60.20
2017-11-11T12:42:50.378Z,60.40
2017-11-11T12:45:19.438Z,60.60
2017-11-11T12:47:47.795Z,60.30
2017-11-11T12:50:16.081Z,60.60
2017-11-11T12:52:44.384Z,61.50
2017-11-11T12:55:12.717Z,61.10
2017-11-11T12:57:41.843Z,61.40
2017-11-11T13:00:10.142Z,61.30
2017-11-11T13:02:38.437Z,62.00
2017-11-11T13:05:06.793Z,62.10
2017-11-11T13:07:35.108Z,61.40
2017-11-11T13:10:03.430Z,61.40
2017-11-11T13:12:31.760Z,61.70
2017-11-11T13:15:00.146Z,61.40
2017-11-11T13:17:28.483Z,61.80
2017-11-11T13:19:56.806Z,60.80
2017-11-11T13:22:26.122Z,60.20
2017-11-11T13:24:54.492Z,60.40
2017-11-11T13:27:22.805Z,59.90
2017-11-11T13:29:51.108Z,59.40
2017-11-11T13:32:20.190Z,58.10
2017-11-11T13:34:48.498Z,58.10
2017-11-11T13:37:16.796Z,58.60
2017-11-11T13:39:45.101Z,59.10
2017-11-11T13:42:13.399Z,59.30
2017-11-11T13:44:41.711Z,59.00
2017-11-11T13:47:10.858Z,59.10
2017-11-11T13:49:39.165Z,59.10
2017-11-11T13:52:07.470Z,58.90
2017-11-11T13:54:36.540Z,59.30
2017-11-11T13:57:04.860Z,59.30
2017-11-11T13:59:33.968Z,59.80
2017-11-11T14:02:02.273Z,59.70
2017-11-11T14:04:30.648Z,60.30
2017-11-11T14:06:58.948Z,61.00
2017-11-11T14:09:27.331Z,62.70
2017-11-11T14:11:55.734Z,63.40
2017-11-11T14:14:24.068Z,64.30
2017-11-11T14:16:52.383Z,64.80
2017-11-11T14:19:20.693Z,65.40
2017-11-11T14:21:49.001Z,65.60
2017-11-11T14:24:18.080Z,65.60
2017-11-11T14:26:47.156Z,65.50
2017-11-11T14:29:15.477Z,65.40
2017-11-11T14:31:44.541Z,64.90
2017-11-11T14:34:12.899Z,64.90
2017-11-11T14:36:41.242Z,65.20
2017-11-11T14:39:10.313Z,65.00
2017-11-11T14:41:38.722Z,65.00
2017-11-11T14:44:07.796Z,64.70
2017-11-11T14:46:36.102Z,64.60
2017-11-11T14:49:05.170Z,64.00
2017-11-11T14:51:33.509Z,64.00
2017-11-11T14:54:02.031Z,64.00
2017-11-11T14:56:30.336Z,64.40
2017-11-11T14:58:58.813Z,64.20
2017-11-11T15:01:28.057Z,63.40
2017-11-11T15:03:56.365Z,65.00
2017-11-11T15:06:24.731Z,64.00
2017-11-11T15:08:53.053Z,62.50
2017-11-11T15:11:21.356Z,61.80
2017-11-11T15:13:49.652Z,61.30
2017-11-11T15:16:18.722Z,60.40
2017-11-11T15:18:47.026Z,60.40
2017-11-11T15:21:16.119Z,59.90
2017-11-11T15:23:45.182Z,60.00
2017-11-11T15:26:13.503Z,59.80
2017-11-11T15:28:42.593Z,59.90
2017-11-11T15:31:10.895Z,59.90
2017-11-11T15:33:40.047Z,59.80
2017-11-11T15:36:08.367Z,59.80
2017-11-11T15:38:37.457Z,63.10
2017-11-11T15:41:05.787Z,63.10
2017-11-11T15:43:34.080Z,63.60
2017-11-11T15:46:02.405Z,64.10
2017-11-11T15:48:31.484Z,65.10
2017-11-11T15:50:59.784Z,65.10
2017-11-11T15:53:28.086Z,65.50
2017-11-11T15:55:56.397Z,65.50
2017-11-11T15:58:24.693Z,65.40
2017-11-11T16:00:53.023Z,65.50
2017-11-11T16:03:22.095Z,65.50
2017-11-11T16:05:51.964Z,65.30
2017-11-11T16:08:20.275Z,65.30
2017-11-11T16:10:48.564Z,65.20
2017-11-11T16:13:16.876Z,64.90
2017-11-11T16:15:45.946Z,65.00
2017-11-11T16:18:14.248Z,64.90
2017-11-11T16:20:42.561Z,66.10
2017-11-11T16:23:10.879Z,68.10
2017-11-11T16:25:39.221Z,68.80
2017-11-11T16:28:07.531Z,69.30
2017-11-11T16:30:35.833Z,69.50
2017-11-11T16:33:04.996Z,69.90
2017-11-11T16:35:33.291Z,70.00
2017-11-11T16:38:01.614Z,70.50
2017-11-11T16:40:30.697Z,71.50
2017-11-11T16:42:59.299Z,70.40
2017-11-11T16:45:28.270Z,70.30
2017-11-11T16:47:56.569Z,70.50
2017-11-11T16:50:24.879Z,70.60
2017-11-11T16:52:53.940Z,69.50
2017-11-11T16:55:22.220Z,69.50
2017-11-11T16:57:51.242Z,69.50
2017-11-11T17:00:19.529Z,69.70
2017-11-11T17:02:48.620Z,71.00
2017-11-11T17:05:16.921Z,70.40
2017-11-11T17:07:45.993Z,70.10
2017-11-11T17:10:14.290Z,70.10
2017-11-11T17:12:42.648Z,69.50
2017-11-11T17:15:10.964Z,68.90
2017-11-11T17:17:40.041Z,68.90
2017-11-11T17:20:09.117Z,68.60
2017-11-11T17:22:37.424Z,68.60
2017-11-11T17:25:05.729Z,68.40
2017-11-11T17:27:34.173Z,68.30
2017-11-11T17:30:02.474Z,67.20
2017-11-11T17:32:31.555Z,67.40
2017-11-11T17:34:59.841Z,66.60
2017-11-11T17:37:28.176Z,66.70
2017-11-11T17:39:56.480Z,66.90
2017-11-11T17:42:24.800Z,67.30
2017-11-11T17:44:53.112Z,67.50
2017-11-11T17:47:21.421Z,68.20
2017-11-11T17:49:49.709Z,67.70
2017-11-11T17:52:17.992Z,67.40
2017-11-11T17:54:46.317Z,66.90
2017-11-11T17:57:15.378Z,65.80
2017-11-11T17:59:43.676Z,65.80
2017-11-11T18:02:11.977Z,65.90
2017-11-11T18:04:41.047Z,66.50
2017-11-11T18:07:09.346Z,66.40
2017-11-11T18:09:37.668Z,66.60
2017-11-11T18:12:05.962Z,66.70
2017-11-11T18:14:34.256Z,66.60
2017-11-11T18:17:02.544Z,66.10
2017-11-11T18:19:30.905Z,65.90
2017-11-11T18:21:59.213Z,66.00
2017-11-11T18:24:27.489Z,66.00
2017-11-11T18:26:56.544Z,66.20
2017-11-11T18:29:24.843Z,66.20
2017-11-11T18:31:53.132Z,66.50
2017-11-11T18:34:21.428Z,66.70
2017-11-11T18:36:49.718Z,67.00
2017-11-11T18:39:18.013Z,67.40
2017-11-11T18:41:46.343Z,67.40
2017-11-11T18:44:14.696Z,67.40
2017-11-11T18:46:43.766Z,66.50
2017-11-11T18:49:12.140Z,66.50
2017-11-11T18:51:40.446Z,66.40
2017-11-11T18:54:08.749Z,66.30
2017-11-11T18:56:37.804Z,65.90
2017-11-11T18:59:06.103Z,65.90
2017-11-11T19:01:35.897Z,65.70
2017-11-11T19:04:04.196Z,65.60
2017-11-11T19:06:32.497Z,65.30
2017-11-11T19:09:01.572Z,65.80
2017-11-11T19:11:29.872Z,65.80
2017-11-11T19:13:58.157Z,66.10
2017-11-11T19:16:27.221Z,66.50
2017-11-11T19:18:55.518Z,66.30
2017-11-11T19:21:23.819Z,66.60
2017-11-11T19:23:52.869Z,66.90
2017-11-11T19:26:21.180Z,66.80
2017-11-11T19:28:49.482Z,66.80
2017-11-11T19:31:18.530Z,67.00
2017-11-11T19:33:46.822Z,67.00
2017-11-11T19:36:15.120Z,67.00
2017-11-11T19:38:44.190Z,69.40
2017-11-11T19:41:12.482Z,69.30
2017-11-11T19:43:40.770Z,70.00
2017-11-11T19:46:09.073Z,71.00
2017-11-11T19:48:38.248Z,74.20
2017-11-11T19:51:06.553Z,74.20
2017-11-11T19:53:34.860Z,76.00
2017-11-11T19:56:04.082Z,78.20
2017-11-11T19:58:32.368Z,78.20
2017-11-11T20:01:00.688Z,78.80
2017-11-11T20:03:28.985Z,79.30
2017-11-11T20:05:57.286Z,79.70
2017-11-11T20:08:26.377Z,80.30
2017-11-11T20:10:55.429Z,80.70
2017-11-11T20:13:23.721Z,80.70
2017-11-11T20:15:52.069Z,80.90
2017-11-11T20:18:20.356Z,81.20
2017-11-11T20:20:48.661Z,81.70
2017-11-11T20:23:17.000Z,82.10
2017-11-11T20:25:45.298Z,81.60
2017-11-11T20:28:13.594Z,80.50
2017-11-11T20:30:41.876Z,80.60
2017-11-11T20:33:10.159Z,80.80
2017-11-11T20:35:38.455Z,81.00
2017-11-11T20:38:06.764Z,81.40
2017-11-11T20:40:35.047Z,81.60
2017-11-11T20:43:03.335Z,81.80
2017-11-11T20:45:32.386Z,81.90
2017-11-11T20:48:00.748Z,82.00
2017-11-11T20:50:29.043Z,82.20
2017-11-11T20:52:57.341Z,82.20
2017-11-11T20:55:25.664Z,82.50
2017-11-11T20:57:54.717Z,82.00
2017-11-11T21:00:23.053Z,82.00
2017-11-11T21:02:51.333Z,82.10
2017-11-11T21:05:19.638Z,81.50
2017-11-11T21:07:47.954Z,81.90
2017-11-11T21:10:16.229Z,82.00
2017-11-11T21:12:44.526Z,82.00
2017-11-11T21:15:12.815Z,82.00
2017-11-11T21:17:41.106Z,82.00
2017-11-11T21:20:10.157Z,81.80
2017-11-11T21:22:38.450Z,81.70
2017-11-11T21:25:06.766Z,81.60
2017-11-11T21:27:35.827Z,81.80
2017-11-11T21:30:04.129Z,81.80
2017-11-11T21:32:32.421Z,82.00
2017-11-11T21:35:00.727Z,82.40
2017-11-11T21:37:29.035Z,82.70
2017-11-11T21:39:57.340Z,82.70
2017-11-11T21:42:25.648Z,82.30
2017-11-11T21:44:53.958Z,81.70
2017-11-11T21:47:22.265Z,81.30
2017-11-11T21:49:51.454Z,81.30
2017-11-11T21:52:19.744Z,81.30
2017-11-11T21:54:48.035Z,81.20
2017-11-11T21:57:16.348Z,80.30
2017-11-11T21:59:45.432Z,79.80
2017-11-11T22:02:13.746Z,79.70
2017-11-11T22:04:42.055Z,79.30
2017-11-11T22:07:10.358Z,78.70
2017-11-11T22:09:38.649Z,77.90
2017-11-11T22:12:07.315Z,77.30
2017-11-11T22:14:35.617Z,77.10
2017-11-11T22:17:03.968Z,76.90
2017-11-11T22:19:32.270Z,77.00
2017-11-11T22:22:00.580Z,77.40
2017-11-11T22:24:28.918Z,77.00
2017-11-11T22:26:57.298Z,76.90
2017-11-11T22:29:25.602Z,77.20
2017-11-11T22:31:53.904Z,77.20
2017-11-11T22:34:22.204Z,77.10
2017-11-11T22:36:50.494Z,77.00
2017-11-11T22:39:19.557Z,77.50
2017-11-11T22:41:49.394Z,77.40
2017-11-11T22:44:17.690Z,78.30
2017-11-11T22:46:46.763Z,77.40
2017-11-11T22:49:15.052Z,77.40
2017-11-11T22:51:43.347Z,77.80
2017-11-11T22:54:12.406Z,78.40
2017-11-11T22:56:40.710Z,78.30
2017-11-11T22:59:09.017Z,78.20
2017-11-11T23:01:38.082Z,77.10
2017-11-11T23:04:06.384Z,77.10
2017-11-11T23:06:35.439Z,79.20
2017-11-11T23:09:03.754Z,79.20
2017-11-11T23:11:32.056Z,80.70
2017-11-11T23:14:01.130Z,82.40
2017-11-11T23:16:29.421Z,82.40
2017-11-11T23:18:57.744Z,82.40
2017-11-11T23:21:26.142Z,83.10
2017-11-11T23:23:54.434Z,83.00
2017-11-11T23:26:22.762Z,83.00
2017-11-11T23:28:51.071Z,82.90
2017-11-11T23:31:19.368Z,83.00
2017-11-11T23:33:48.325Z,83.30
2017-11-11T23:36:17.389Z,83.50
2017-11-11T23:38:45.674Z,83.40
2017-11-11T23:41:13.974Z,83.60
2017-11-11T23:43:43.040Z,84.10
2017-11-11T23:46:11.343Z,84.40
2017-11-11T23:48:39.629Z,84.70
2017-11-11T23:51:07.939Z,84.90
2017-11-11T23:53:36.223Z,85.40
2017-11-11T23:56:04.532Z,85.50
2017-11-11T23:58:32.823Z,85.80
